createdAt,value
2023-02-23T00:02:05.197Z,100.00
2023-02-23T00:04:32.554Z,100.00
2023-02-23T00:06:59.677Z,100.00
2023-02-23T00:11:57.565Z,100.00
2023-02-23T00:16:57.337Z,100.00
2023-02-23T00:19:25.204Z,100.00
2023-02-23T00:21:53.650Z,100.00
2023-02-23T00:24:21.298Z,100.00
2023-02-23T00:26:51.779Z,100.00
2023-02-23T00:29:22.707Z,100.00
2023-02-23T00:31:50.702Z,100.00
2023-02-23T00:34:21.350Z,100.00
2023-02-23T00:36:54.529Z,100.00
2023-02-23T00:39:23.926Z,100.00
2023-02-23T00:41:52.685Z,100.00
2023-02-23T00:44:23.765Z,100.00
2023-02-23T00:46:52.246Z,100.00
2023-02-23T00:49:22.131Z,100.00
2023-02-23T00:51:49.456Z,100.00
2023-02-23T00:54:17.805Z,100.00
2023-02-23T00:56:45.431Z,100.00
2023-02-23T00:59:12.901Z,100.00
2023-02-23T01:01:42.104Z,100.00
2023-02-23T01:04:10.181Z,100.00
2023-02-23T01:06:41.068Z,100.00
2023-02-23T01:09:09.916Z,100.00
2023-02-23T01:11:36.684Z,100.00
2023-02-23T01:14:03.749Z,100.00
2023-02-23T01:16:33.808Z,100.00
2023-02-23T01:19:03.739Z,100.00
2023-02-23T01:21:38.857Z,100.00
2023-02-23T01:24:06.025Z,100.00
2023-02-23T01:26:36.440Z,100.00
2023-02-23T01:29:10.791Z,100.00
2023-02-23T01:31:40.391Z,100.00
2023-02-23T01:34:08.310Z,100.00
2023-02-23T01:36:39.105Z,100.00
2023-02-23T01:39:08.103Z,100.00
2023-02-23T01:41:37.004Z,100.00
2023-02-23T01:46:54.677Z,100.00
2023-02-23T01:49:27.934Z,100.00
2023-02-23T01:52:07.310Z,100.00
2023-02-23T01:54:38.213Z,100.00
2023-02-23T01:57:07.792Z,100.00
2023-02-23T01:59:44.888Z,100.00
2023-02-23T02:02:13.515Z,100.00
2023-02-23T02:04:45.649Z,100.00
2023-02-23T02:07:18.963Z,100.00
2023-02-23T02:10:07.414Z,100.00
2023-02-23T02:12:34.253Z,100.00
2023-02-23T02:15:04.682Z,100.00
2023-02-23T02:17:48.412Z,100.00
2023-02-23T02:20:30.379Z,100.00
2023-02-23T02:23:15.140Z,100.00
2023-02-23T02:25:57.407Z,100.00
2023-02-23T02:28:30.424Z,100.00
2023-02-23T02:31:30.538Z,100.00
2023-02-23T02:34:16.067Z,100.00
2023-02-23T02:37:10.892Z,100.00
2023-02-23T02:39:49.864Z,100.00
2023-02-23T02:42:30.317Z,100.00
2023-02-23T02:45:30.560Z,100.00
2023-02-23T02:48:00.196Z,100.00
2023-02-23T02:50:35.813Z,100.00
2023-02-23T02:53:10.334Z,100.00
2023-02-23T02:55:43.737Z,100.00
2023-02-23T02:58:12.714Z,100.00
2023-02-23T03:01:06.328Z,100.00
2023-02-23T03:04:06.077Z,100.00
2023-02-23T03:06:56.992Z,100.00
2023-02-23T03:09:30.385Z,100.00
2023-02-23T03:15:19.922Z,100.00
2023-02-23T03:18:08.001Z,100.00
2023-02-23T03:21:02.561Z,100.00
2023-02-23T03:23:48.993Z,100.00
2023-02-23T03:26:30.419Z,100.00
2023-02-23T03:29:30.498Z,100.00
2023-02-23T03:32:30.529Z,100.00
2023-02-23T03:35:30.545Z,100.00
2023-02-23T03:38:25.864Z,100.00
2023-02-23T03:41:15.147Z,100.00
2023-02-23T03:44:20.101Z,100.00
2023-02-23T03:47:06.698Z,100.00
2023-02-23T03:50:01.797Z,100.00
2023-02-23T03:52:29.578Z,100.00
2023-02-23T03:55:28.018Z,100.00
2023-02-23T03:58:21.111Z,100.00
2023-02-23T04:01:10.035Z,100.00
2023-02-23T04:03:59.632Z,100.00
2023-02-23T04:06:49.207Z,100.00
2023-02-23T04:12:23.625Z,100.00
2023-02-23T04:15:15.340Z,100.00
2023-02-23T04:17:43.235Z,100.00
2023-02-23T04:20:14.416Z,100.00
2023-02-23T04:22:41.233Z,100.00
2023-02-23T04:25:09.202Z,100.00
2023-02-23T04:27:36.619Z,100.00
2023-02-23T04:30:11.647Z,100.00
2023-02-23T04:32:38.609Z,100.00
2023-02-23T04:35:05.701Z,100.00
2023-02-23T04:37:32.511Z,100.00
2023-02-23T04:39:59.198Z,100.00
2023-02-23T04:42:26.927Z,100.00
2023-02-23T04:44:53.955Z,100.00
2023-02-23T04:47:20.978Z,100.00
2023-02-23T04:49:47.742Z,100.00
2023-02-23T04:52:14.535Z,100.00
2023-02-23T04:54:42.163Z,100.00
2023-02-23T04:57:10.343Z,100.00
2023-02-23T04:59:37.107Z,100.00
2023-02-23T05:02:04.048Z,100.00
2023-02-23T05:04:31.078Z,100.00
2023-02-23T05:06:58.394Z,100.00
2023-02-23T05:09:25.779Z,100.00
2023-02-23T05:11:52.747Z,100.00
2023-02-23T05:14:19.446Z,100.00
2023-02-23T05:16:46.538Z,100.00
2023-02-23T05:19:15.854Z,100.00
2023-02-23T05:21:42.644Z,100.00
2023-02-23T05:24:09.505Z,100.00
2023-02-23T05:26:36.716Z,100.00
2023-02-23T05:29:03.749Z,100.00
2023-02-23T05:31:30.775Z,100.00
2023-02-23T05:33:57.494Z,100.00
2023-02-23T05:36:24.211Z,100.00
2023-02-23T05:38:50.999Z,100.00
2023-02-23T05:41:21.262Z,100.00
2023-02-23T05:43:49.252Z,100.00
2023-02-23T05:46:19.849Z,100.00
2023-02-23T05:48:47.808Z,100.00
2023-02-23T05:51:16.966Z,100.00
2023-02-23T05:53:44.790Z,100.00
2023-02-23T05:56:20.568Z,100.00
2023-02-23T05:58:48.815Z,100.00
2023-02-23T06:01:15.804Z,100.00
2023-02-23T06:03:42.515Z,100.00
2023-02-23T06:06:09.368Z,100.00
2023-02-23T06:08:36.110Z,100.00
2023-02-23T06:11:04.450Z,100.00
2023-02-23T06:13:31.855Z,100.00
2023-02-23T06:16:02.189Z,100.00
2023-02-23T06:18:30.616Z,100.00
2023-02-23T06:21:01.456Z,100.00
2023-02-23T06:25:55.010Z,100.00
2023-02-23T06:28:21.916Z,100.00
2023-02-23T06:30:51.464Z,100.00
2023-02-23T06:33:18.751Z,100.00
2023-02-23T06:35:46.336Z,100.00
2023-02-23T06:38:13.068Z,100.00
2023-02-23T06:40:40.083Z,100.00
2023-02-23T06:43:06.735Z,100.00
2023-02-23T06:45:33.517Z,100.00
2023-02-23T06:48:01.186Z,100.00
2023-02-23T06:52:56.858Z,100.00
2023-02-23T06:55:24.012Z,100.00
2023-02-23T06:57:52.150Z,100.00
2023-02-23T07:00:19.600Z,100.00
2023-02-23T07:02:46.387Z,100.00
2023-02-23T07:05:13.210Z,100.00
2023-02-23T07:07:40.020Z,100.00
2023-02-23T07:10:07.625Z,100.00
2023-02-23T07:12:34.378Z,100.00
2023-02-23T07:15:01.092Z,100.00
2023-02-23T07:17:27.821Z,100.00
2023-02-23T07:19:54.815Z,100.00
2023-02-23T07:22:22.627Z,100.00
2023-02-23T07:24:49.573Z,100.00
2023-02-23T07:27:18.921Z,100.00
2023-02-23T07:29:45.619Z,100.00
2023-02-23T07:32:12.438Z,100.00
2023-02-23T07:34:40.063Z,100.00
2023-02-23T07:37:06.910Z,100.00
2023-02-23T07:39:33.912Z,100.00
2023-02-23T07:42:00.691Z,100.00
2023-02-23T07:44:27.420Z,100.00
2023-02-23T07:46:54.595Z,100.00
2023-02-23T07:49:21.349Z,100.00
2023-02-23T07:51:48.318Z,100.00
2023-02-23T07:54:16.262Z,100.00
2023-02-23T07:56:42.927Z,100.00
2023-02-23T07:59:10.211Z,100.00
2023-02-23T08:01:37.057Z,100.00
2023-02-23T08:04:03.856Z,100.00
2023-02-23T08:06:31.320Z,100.00
2023-02-23T08:09:02.367Z,100.00
2023-02-23T08:14:00.173Z,100.00
2023-02-23T08:16:32.395Z,100.00
2023-02-23T08:19:02.505Z,100.00
2023-02-23T08:21:30.570Z,100.00
2023-02-23T08:23:58.255Z,100.00
2023-02-23T08:26:25.971Z,100.00
2023-02-23T08:28:54.440Z,100.00
2023-02-23T08:31:24.998Z,100.00
2023-02-23T08:33:52.600Z,100.00
2023-02-23T08:36:21.084Z,100.00
2023-02-23T08:38:48.739Z,100.00
2023-02-23T08:41:15.902Z,100.00
2023-02-23T08:43:44.131Z,100.00
2023-02-23T08:46:11.809Z,100.00
2023-02-23T08:48:40.740Z,100.00
2023-02-23T08:51:08.632Z,100.00
2023-02-23T08:53:36.577Z,100.00
2023-02-23T08:56:06.307Z,100.00
2023-02-23T08:58:35.660Z,100.00
2023-02-23T09:01:02.917Z,100.00
2023-02-23T09:03:30.880Z,100.00
2023-02-23T09:06:08.835Z,100.00
2023-02-23T09:08:36.188Z,100.00
2023-02-23T09:11:02.977Z,100.00
2023-02-23T09:13:30.593Z,100.00
2023-02-23T09:15:57.438Z,100.00
2023-02-23T09:18:30.523Z,100.00
2023-02-23T09:20:57.269Z,100.00
2023-02-23T09:23:24.900Z,100.00
2023-02-23T09:25:51.595Z,100.00
2023-02-23T09:28:20.550Z,100.00
2023-02-23T09:30:47.874Z,100.00
2023-02-23T09:33:15.047Z,100.00
2023-02-23T09:35:41.984Z,100.00
2023-02-23T09:38:09.558Z,100.00
2023-02-23T09:40:53.370Z,100.00
2023-02-23T09:43:30.641Z,100.00
2023-02-23T09:46:14.798Z,100.00
2023-02-23T09:48:43.374Z,100.00
2023-02-23T09:51:18.117Z,100.00
2023-02-23T09:53:51.245Z,100.00
2023-02-23T09:56:31.985Z,100.00
2023-02-23T09:59:01.165Z,100.00
2023-02-23T10:01:30.646Z,100.00
2023-02-23T10:04:03.421Z,100.00
2023-02-23T10:06:30.829Z,100.00
2023-02-23T10:09:04.185Z,100.00
2023-02-23T10:11:44.185Z,100.00
2023-02-23T10:14:29.684Z,100.00
2023-02-23T10:17:17.972Z,100.00
2023-02-23T10:20:13.430Z,100.00
2023-02-23T10:22:41.891Z,100.00
2023-02-23T10:25:14.595Z,100.00
2023-02-23T10:27:45.234Z,100.00
2023-02-23T10:30:19.657Z,100.00
2023-02-23T10:32:52.800Z,97.76
2023-02-23T10:35:21.914Z,97.21
2023-02-23T10:37:50.114Z,96.09
2023-02-23T10:40:22.301Z,94.84
2023-02-23T10:42:50.134Z,93.96
2023-02-23T10:45:25.685Z,92.95
2023-02-23T10:47:58.763Z,90.50
2023-02-23T10:53:00.872Z,89.78
2023-02-23T10:55:30.576Z,88.70
2023-02-23T10:58:19.249Z,88.81
2023-02-23T11:00:53.759Z,87.43
2023-02-23T11:03:30.840Z,87.68
2023-02-23T11:06:01.210Z,85.46
2023-02-23T11:08:30.937Z,84.60
2023-02-23T11:11:19.431Z,85.72
2023-02-23T11:13:49.479Z,84.08
2023-02-23T11:16:29.921Z,85.83
2023-02-23T11:19:06.566Z,84.78
2023-02-23T11:21:38.997Z,86.42
2023-02-23T11:24:25.146Z,83.56
2023-02-23T11:26:54.773Z,80.86
2023-02-23T11:31:59.186Z,82.43
2023-02-23T11:37:01.217Z,82.52
2023-02-23T11:39:28.214Z,83.30
2023-02-23T11:42:19.504Z,81.63
2023-02-23T11:45:16.441Z,81.39
2023-02-23T11:47:54.676Z,81.76
2023-02-23T11:50:29.669Z,81.52
2023-02-23T11:53:14.661Z,80.84
2023-02-23T11:55:48.252Z,80.69
2023-02-23T11:58:23.151Z,79.09
2023-02-23T12:01:17.528Z,81.09
2023-02-23T12:03:56.905Z,81.08
2023-02-23T12:06:31.849Z,80.42
2023-02-23T12:09:23.813Z,81.14
2023-02-23T12:12:23.106Z,80.12
2023-02-23T12:14:56.564Z,81.95
2023-02-23T12:17:29.693Z,80.50
2023-02-23T12:20:13.819Z,80.28
2023-02-23T12:22:45.812Z,79.59
2023-02-23T12:25:27.721Z,80.81
2023-02-23T12:28:30.701Z,80.44
2023-02-23T12:31:02.959Z,81.09
2023-02-23T12:36:39.455Z,82.04
2023-02-23T12:39:30.585Z,82.04
2023-02-23T12:42:35.299Z,83.13
2023-02-23T12:45:06.717Z,83.90
2023-02-23T12:47:38.473Z,85.01
2023-02-23T12:50:21.563Z,85.33
2023-02-23T12:53:23.624Z,85.93
2023-02-23T12:56:04.616Z,85.82
2023-02-23T12:58:38.407Z,86.61
2023-02-23T13:01:39.762Z,87.45
2023-02-23T13:04:30.801Z,87.15
2023-02-23T13:07:04.334Z,87.24
2023-02-23T13:09:39.412Z,86.97
2023-02-23T13:12:21.672Z,85.91
2023-02-23T13:15:15.637Z,85.19
2023-02-23T13:17:55.767Z,84.30
2023-02-23T13:20:33.806Z,84.70
2023-02-23T13:23:39.470Z,84.24
2023-02-23T13:26:29.582Z,85.19
2023-02-23T13:29:06.464Z,83.79
2023-02-23T13:31:36.906Z,83.54
2023-02-23T13:34:07.871Z,83.04
2023-02-23T13:36:36.156Z,81.98
2023-02-23T13:39:28.011Z,80.95
2023-02-23T13:42:17.705Z,79.56
2023-02-23T13:44:53.588Z,79.40
2023-02-23T13:47:39.353Z,80.18
2023-02-23T13:50:17.746Z,79.78
2023-02-23T13:52:47.384Z,78.84
2023-02-23T13:55:40.033Z,79.22
2023-02-23T13:58:11.798Z,78.51
2023-02-23T14:00:39.498Z,78.48
2023-02-23T14:03:08.064Z,78.29
2023-02-23T14:05:38.406Z,77.77
2023-02-23T14:08:06.050Z,78.18
2023-02-23T14:10:39.363Z,79.82
2023-02-23T14:13:15.740Z,77.96
2023-02-23T14:15:53.119Z,78.75
2023-02-23T14:18:21.016Z,78.72
2023-02-23T14:21:02.434Z,78.40
2023-02-23T14:23:35.557Z,78.28
2023-02-23T14:26:15.908Z,78.24
2023-02-23T14:28:50.489Z,78.07
2023-02-23T14:31:21.002Z,77.76
2023-02-23T14:33:49.893Z,78.52
2023-02-23T14:36:22.765Z,79.71
2023-02-23T14:39:02.248Z,78.62
2023-02-23T14:41:39.508Z,77.71
2023-02-23T14:44:43.565Z,78.32
2023-02-23T14:47:21.823Z,78.56
2023-02-23T14:50:01.642Z,77.96
2023-02-23T14:52:39.411Z,78.00
2023-02-23T14:55:12.000Z,77.98
2023-02-23T14:57:42.536Z,78.56
2023-02-23T15:00:15.320Z,79.48
2023-02-23T15:02:56.515Z,79.58
2023-02-23T15:05:26.708Z,80.68
2023-02-23T15:07:54.772Z,81.02
2023-02-23T15:10:35.544Z,82.02
2023-02-23T15:13:10.980Z,81.96
2023-02-23T15:15:40.678Z,82.94
2023-02-23T15:18:39.411Z,83.81
2023-02-23T15:21:27.066Z,84.53
2023-02-23T15:24:16.747Z,84.52
2023-02-23T15:26:43.909Z,85.46
2023-02-23T15:29:10.607Z,86.00
2023-02-23T15:34:03.820Z,87.68
2023-02-23T15:39:07.077Z,90.40
2023-02-23T15:41:37.042Z,90.76
2023-02-23T15:44:13.006Z,91.92
2023-02-23T15:46:41.641Z,92.76
2023-02-23T15:49:14.513Z,94.01
2023-02-23T15:51:49.083Z,95.60
2023-02-23T15:54:29.823Z,94.85
2023-02-23T15:57:03.107Z,95.37
2023-02-23T15:59:34.869Z,96.20
2023-02-23T16:02:03.653Z,96.44
2023-02-23T16:04:33.202Z,96.88
2023-02-23T16:07:17.193Z,97.59
2023-02-23T16:09:55.989Z,97.69
2023-02-23T16:12:25.104Z,97.31
2023-02-23T16:15:07.562Z,97.74
2023-02-23T16:17:38.478Z,97.46
2023-02-23T16:20:17.416Z,97.83
2023-02-23T16:22:55.062Z,97.07
2023-02-23T16:25:25.564Z,97.31
2023-02-23T16:28:01.838Z,97.50
2023-02-23T16:30:32.260Z,97.89
2023-02-23T16:33:23.711Z,97.56
2023-02-23T16:36:10.719Z,98.56
2023-02-23T16:38:39.444Z,98.97
2023-02-23T16:41:22.324Z,99.81
2023-02-23T16:43:51.086Z,100.00
2023-02-23T16:46:19.259Z,100.00
2023-02-23T16:48:46.588Z,100.00
2023-02-23T16:51:18.994Z,100.00
2023-02-23T16:53:46.145Z,100.00
2023-02-23T16:56:17.223Z,100.00
2023-02-23T16:58:47.215Z,100.00
2023-02-23T17:01:17.406Z,100.00
2023-02-23T17:03:52.722Z,100.00
2023-02-23T17:06:21.119Z,100.00
2023-02-23T17:08:57.666Z,100.00
2023-02-23T17:11:24.773Z,100.00
2023-02-23T17:13:51.837Z,100.00
2023-02-23T17:16:18.942Z,100.00
2023-02-23T17:18:47.489Z,100.00
2023-02-23T17:21:15.068Z,100.00
2023-02-23T17:23:51.428Z,100.00
2023-02-23T17:26:21.102Z,100.00
2023-02-23T17:28:48.171Z,100.00
2023-02-23T17:31:16.823Z,100.00
2023-02-23T17:33:44.351Z,100.00
2023-02-23T17:36:16.460Z,100.00
2023-02-23T17:38:46.170Z,100.00
2023-02-23T17:41:18.048Z,100.00
2023-02-23T17:43:45.240Z,100.00
2023-02-23T17:46:12.998Z,100.00
2023-02-23T17:48:41.030Z,100.00
2023-02-23T17:51:10.375Z,100.00
2023-02-23T17:53:37.096Z,100.00
2023-02-23T17:56:04.349Z,100.00
2023-02-23T17:58:31.453Z,100.00
2023-02-23T18:01:00.176Z,100.00
2023-02-23T18:03:32.435Z,100.00
2023-02-23T18:06:03.675Z,100.00
2023-02-23T18:08:30.863Z,100.00
2023-02-23T18:10:57.949Z,100.00
2023-02-23T18:13:25.667Z,100.00
2023-02-23T18:15:55.957Z,100.00
2023-02-23T18:18:24.307Z,100.00
2023-02-23T18:20:53.129Z,100.00
2023-02-23T18:23:27.111Z,100.00
2023-02-23T18:25:53.816Z,100.00
2023-02-23T18:28:21.045Z,100.00
2023-02-23T18:30:48.009Z,100.00
2023-02-23T18:33:14.912Z,100.00
2023-02-23T18:35:45.295Z,100.00
2023-02-23T18:38:14.431Z,100.00
2023-02-23T18:40:41.634Z,100.00
2023-02-23T18:43:09.170Z,100.00
2023-02-23T18:45:39.660Z,100.00
2023-02-23T18:48:16.080Z,100.00
2023-02-23T18:50:42.780Z,100.00
2023-02-23T18:53:11.043Z,100.00
2023-02-23T18:55:39.477Z,100.00
2023-02-23T18:58:06.189Z,100.00
2023-02-23T19:00:39.817Z,100.00
2023-02-23T19:03:06.810Z,100.00
2023-02-23T19:05:34.773Z,100.00
2023-02-23T19:08:01.484Z,100.00
2023-02-23T19:10:30.548Z,100.00
2023-02-23T19:12:57.524Z,100.00
2023-02-23T19:15:24.318Z,100.00
2023-02-23T19:17:51.424Z,100.00
2023-02-23T19:20:18.353Z,100.00
2023-02-23T19:22:52.395Z,100.00
2023-02-23T19:25:19.229Z,100.00
2023-02-23T19:27:46.050Z,100.00
2023-02-23T19:30:14.700Z,100.00
2023-02-23T19:32:42.648Z,100.00
2023-02-23T19:35:15.055Z,100.00
2023-02-23T19:37:52.506Z,100.00
2023-02-23T19:40:23.208Z,100.00
2023-02-23T19:42:52.906Z,100.00
2023-02-23T19:45:19.897Z,100.00
2023-02-23T19:47:46.692Z,100.00
2023-02-23T19:50:17.169Z,100.00
2023-02-23T19:52:45.648Z,100.00
2023-02-23T19:55:13.012Z,100.00
2023-02-23T19:57:40.423Z,100.00
2023-02-23T20:00:11.671Z,100.00
2023-02-23T20:02:43.045Z,100.00
2023-02-23T20:05:14.718Z,100.00
2023-02-23T20:07:41.642Z,100.00
2023-02-23T20:10:10.372Z,100.00
2023-02-23T20:12:37.134Z,100.00
2023-02-23T20:15:04.390Z,100.00
2023-02-23T20:17:31.263Z,100.00
2023-02-23T20:19:58.093Z,100.00
2023-02-23T20:22:24.847Z,100.00
2023-02-23T20:24:51.525Z,100.00
2023-02-23T20:27:22.724Z,100.00
2023-02-23T20:29:50.954Z,100.00
2023-02-23T20:32:17.959Z,100.00
2023-02-23T20:34:46.161Z,100.00
2023-02-23T20:37:12.868Z,100.00
2023-02-23T20:39:39.562Z,100.00
2023-02-23T20:42:06.361Z,100.00
2023-02-23T20:44:33.452Z,100.00
2023-02-23T20:47:01.165Z,100.00
2023-02-23T20:49:28.200Z,100.00
2023-02-23T20:51:54.952Z,100.00
2023-02-23T20:54:21.890Z,100.00
2023-02-23T20:56:59.079Z,100.00
2023-02-23T20:59:30.105Z,100.00
2023-02-23T21:01:57.221Z,100.00
2023-02-23T21:04:23.937Z,100.00
2023-02-23T21:06:51.052Z,100.00
2023-02-23T21:09:18.008Z,100.00
2023-02-23T21:11:46.536Z,100.00
2023-02-23T21:14:14.414Z,100.00
2023-02-23T21:16:46.673Z,99.87
2023-02-23T21:19:16.106Z,99.92
2023-02-23T21:21:47.245Z,99.81
2023-02-23T21:24:15.433Z,99.01
2023-02-23T21:26:42.913Z,97.85
2023-02-23T21:29:14.937Z,98.41
2023-02-23T21:31:43.425Z,97.27
2023-02-23T21:34:11.240Z,96.45
2023-02-23T21:36:39.592Z,94.72
2023-02-23T21:39:06.867Z,95.34
2023-02-23T21:41:34.221Z,93.85
2023-02-23T21:44:02.015Z,93.53
2023-02-23T21:46:28.755Z,93.66
2023-02-23T21:48:59.352Z,93.48
2023-02-23T21:51:29.543Z,93.10
2023-02-23T21:53:58.207Z,93.62
2023-02-23T21:56:25.449Z,94.05
2023-02-23T21:58:54.990Z,94.45
2023-02-23T22:01:26.987Z,95.21
2023-02-23T22:03:55.221Z,95.23
2023-02-23T22:06:28.594Z,95.46
2023-02-23T22:08:56.905Z,95.21
2023-02-23T22:11:27.321Z,95.95
2023-02-23T22:13:59.700Z,95.79
2023-02-23T22:16:29.768Z,95.16
2023-02-23T22:18:56.998Z,94.92
2023-02-23T22:21:24.079Z,95.75
2023-02-23T22:23:53.641Z,95.80
2023-02-23T22:26:20.683Z,95.80
2023-02-23T22:28:47.524Z,96.16
2023-02-23T22:31:15.472Z,96.66
2023-02-23T22:33:44.295Z,96.29
2023-02-23T22:36:13.409Z,96.19
2023-02-23T22:38:41.883Z,96.16
2023-02-23T22:41:12.158Z,96.44
2023-02-23T22:43:39.652Z,97.07
2023-02-23T22:46:08.135Z,97.24
2023-02-23T22:48:36.030Z,97.57
2023-02-23T22:51:03.352Z,97.73
2023-02-23T22:53:30.732Z,97.37
2023-02-23T22:55:58.377Z,98.03
2023-02-23T22:58:26.543Z,98.60
2023-02-23T23:01:03.711Z,98.62
2023-02-23T23:03:35.959Z,98.51
2023-02-23T23:06:04.894Z,98.71
2023-02-23T23:08:36.677Z,98.95
2023-02-23T23:11:09.858Z,99.31
2023-02-23T23:13:44.772Z,99.47
2023-02-23T23:16:30.193Z,99.39
2023-02-23T23:19:12.494Z,98.28
2023-02-23T23:21:41.416Z,97.30
2023-02-23T23:24:13.558Z,97.78
2023-02-23T23:26:41.488Z,98.28
2023-02-23T23:29:14.525Z,98.91
2023-02-23T23:31:45.952Z,99.00
2023-02-23T23:34:13.927Z,98.58
2023-02-23T23:36:49.689Z,99.09
2023-02-23T23:39:19.020Z,99.29
2023-02-23T23:41:48.291Z,98.58
2023-02-23T23:44:21.405Z,99.06
2023-02-23T23:46:53.148Z,99.07
2023-02-23T23:49:22.483Z,98.45
2023-02-23T23:51:51.567Z,100.00
2023-02-23T23:54:21.754Z,100.00
2023-02-23T23:56:50.167Z,100.00
2023-02-23T23:59:20.606Z,100.00
